createdAt,value
2023-05-11T00:00:01.986Z,100983.34
2023-05-11T00:02:30.127Z,100976.41
2023-05-11T00:04:58.316Z,100984.41
2023-05-11T00:07:26.446Z,100980.88
2023-05-11T00:09:54.146Z,100980.88
2023-05-11T00:12:22.187Z,100979.16
2023-05-11T00:14:49.783Z,100979.19
2023-05-11T00:17:19.556Z,100977.41
2023-05-11T00:19:47.276Z,100977.53
2023-05-11T00:22:15.390Z,100978.31
2023-05-11T00:24:43.072Z,100970.63
2023-05-11T00:27:11.372Z,100977.63
2023-05-11T00:29:39.173Z,100974.19
2023-05-11T00:32:07.174Z,100982.78
2023-05-11T00:34:35.144Z,100973.25
2023-05-11T00:37:04.345Z,100968.03
2023-05-11T00:39:32.242Z,100973.38
2023-05-11T00:42:00.898Z,100969.03
2023-05-11T00:44:28.521Z,100970.75
2023-05-11T00:46:57.723Z,100969.00
2023-05-11T00:49:25.497Z,100964.06
2023-05-11T00:51:53.460Z,100963.16
2023-05-11T00:54:21.337Z,100965.75
2023-05-11T00:56:49.434Z,100962.31
2023-05-11T00:59:17.239Z,100963.44
2023-05-11T01:01:45.690Z,100963.25
2023-05-11T01:04:14.146Z,100960.31
2023-05-11T01:07:12.276Z,100958.59
2023-05-11T01:09:49.917Z,100955.88
2023-05-11T01:12:33.737Z,100951.69
2023-05-11T01:15:27.629Z,100954.91
2023-05-11T01:18:06.450Z,100958.63
2023-05-11T01:20:35.720Z,100956.25
2023-05-11T01:23:41.930Z,100963.19
2023-05-11T01:26:45.451Z,100957.16
2023-05-11T01:29:38.495Z,100958.16
2023-05-11T01:32:19.809Z,100955.66
2023-05-11T01:34:50.729Z,100955.69
2023-05-11T01:37:24.812Z,100954.06
2023-05-11T01:40:06.307Z,100956.78
2023-05-11T01:42:42.055Z,100950.63
2023-05-11T01:45:11.764Z,100954.09
2023-05-11T01:47:44.198Z,100955.03
2023-05-11T01:50:14.155Z,100954.03
2023-05-11T01:52:43.277Z,100951.50
2023-05-11T01:55:14.844Z,100952.50
2023-05-11T01:57:45.161Z,100950.72
2023-05-11T02:00:16.096Z,100946.19
2023-05-11T02:02:47.592Z,100945.28
2023-05-11T02:05:25.108Z,100943.63
2023-05-11T02:07:55.000Z,100950.53
2023-05-11T02:10:26.825Z,100955.91
2023-05-11T02:12:55.720Z,100954.16
2023-05-11T02:15:26.799Z,100954.09
2023-05-11T02:17:56.072Z,100954.28
2023-05-11T02:20:26.077Z,100949.03
2023-05-11T02:22:55.959Z,100957.75
2023-05-11T02:25:24.528Z,100957.78
2023-05-11T02:27:52.525Z,100954.47
2023-05-11T02:30:20.852Z,100956.22
2023-05-11T02:32:51.854Z,100960.59
2023-05-11T02:35:28.676Z,100964.91
2023-05-11T02:38:01.865Z,100962.31
2023-05-11T02:40:42.385Z,100955.38
2023-05-11T02:43:13.186Z,100959.72
2023-05-11T02:45:50.363Z,100963.16
2023-05-11T02:48:27.696Z,100961.34
2023-05-11T02:50:58.454Z,100959.69
2023-05-11T02:53:33.619Z,100962.16
2023-05-11T02:56:02.577Z,100962.16
2023-05-11T02:58:32.621Z,100964.84
2023-05-11T03:01:14.278Z,100963.06
2023-05-11T03:03:42.367Z,100956.19
2023-05-11T03:06:10.676Z,100960.44
2023-05-11T03:08:38.698Z,100962.94
2023-05-11T03:11:07.770Z,100966.41
2023-05-11T03:13:35.976Z,100962.88
2023-05-11T03:16:07.795Z,100964.59
2023-05-11T03:18:37.364Z,100962.00
2023-05-11T03:21:07.161Z,100961.91
2023-05-11T03:23:36.992Z,100971.41
2023-05-11T03:26:06.827Z,100971.41
2023-05-11T03:28:38.513Z,100979.97
2023-05-11T03:31:09.093Z,100972.97
2023-05-11T03:33:37.278Z,100972.00
2023-05-11T03:36:11.180Z,100972.81
2023-05-11T03:38:40.308Z,100959.81
2023-05-11T03:41:17.292Z,100979.66
2023-05-11T03:43:51.835Z,100975.25
2023-05-11T03:46:23.770Z,100979.41
2023-05-11T03:48:52.721Z,100976.81
2023-05-11T03:51:24.980Z,100977.41
2023-05-11T03:53:52.693Z,100980.06
2023-05-11T03:56:21.966Z,100981.59
2023-05-11T03:58:50.330Z,100985.97
2023-05-11T04:01:18.928Z,100992.97
2023-05-11T04:03:51.560Z,100987.66
2023-05-11T04:06:20.436Z,100992.75
2023-05-11T04:08:54.922Z,100983.78
2023-05-11T04:11:24.017Z,100983.25
2023-05-11T04:13:51.742Z,100982.66
2023-05-11T04:16:19.753Z,100985.50
2023-05-11T04:18:48.381Z,100983.50
2023-05-11T04:21:16.580Z,100985.19
2023-05-11T04:23:44.266Z,100996.38
2023-05-11T04:26:12.235Z,100989.88
2023-05-11T04:28:39.846Z,100991.41
2023-05-11T04:31:07.831Z,100989.41
2023-05-11T04:33:35.487Z,100995.25
2023-05-11T04:36:03.610Z,100987.38
2023-05-11T04:38:31.421Z,100989.31
2023-05-11T04:41:04.427Z,100999.91
2023-05-11T04:43:32.484Z,100989.53
2023-05-11T04:46:00.505Z,100998.34
2023-05-11T04:48:29.952Z,100997.41
2023-05-11T04:50:58.439Z,100998.88
2023-05-11T04:53:30.927Z,101001.94
2023-05-11T04:55:58.901Z,101005.69
2023-05-11T04:58:27.468Z,101015.25
2023-05-11T05:00:55.464Z,101011.00
2023-05-11T05:03:23.235Z,101017.91
2023-05-11T05:05:51.526Z,101012.34
2023-05-11T05:08:19.245Z,101014.38
2023-05-11T05:10:48.193Z,101013.66
2023-05-11T05:13:16.980Z,101013.00
2023-05-11T05:15:45.003Z,101011.47
2023-05-11T05:18:13.079Z,101013.53
2023-05-11T05:20:42.339Z,101013.97
2023-05-11T05:23:10.152Z,101014.81
2023-05-11T05:25:38.144Z,101019.81
2023-05-11T05:28:07.117Z,101013.97
2023-05-11T05:30:36.414Z,101013.13
2023-05-11T05:33:04.413Z,101012.06
2023-05-11T05:35:33.830Z,101017.81
2023-05-11T05:38:02.023Z,101018.97
2023-05-11T05:40:30.163Z,101022.25
2023-05-11T05:42:58.037Z,101022.97
2023-05-11T05:45:26.459Z,101025.78
2023-05-11T05:47:57.167Z,101029.97
2023-05-11T05:50:25.369Z,101026.03
2023-05-11T05:52:53.474Z,101028.38
2023-05-11T05:55:24.772Z,101020.84
2023-05-11T05:57:53.450Z,101023.75
2023-05-11T06:00:21.685Z,101028.22
2023-05-11T06:02:57.896Z,101027.63
2023-05-11T06:05:28.066Z,101035.25
2023-05-11T06:08:09.194Z,101025.78
2023-05-11T06:10:39.265Z,101026.38
2023-05-11T06:13:09.594Z,101020.75
2023-05-11T06:15:41.822Z,101032.16
2023-05-11T06:18:18.854Z,101031.53
2023-05-11T06:20:47.251Z,101033.84
2023-05-11T06:23:16.837Z,101037.88
2023-05-11T06:25:45.943Z,101034.94
2023-05-11T06:28:14.318Z,101032.66
2023-05-11T06:30:42.400Z,101024.75
2023-05-11T06:33:10.878Z,101035.72
2023-05-11T06:35:40.345Z,101040.63
2023-05-11T06:38:10.425Z,101036.13
2023-05-11T06:40:38.604Z,101030.16
2023-05-11T06:43:06.647Z,101039.53
2023-05-11T06:45:48.874Z,101040.91
2023-05-11T06:48:17.098Z,101042.44
2023-05-11T06:50:45.107Z,101041.34
2023-05-11T06:53:17.871Z,101034.88
2023-05-11T06:55:46.098Z,101043.06
2023-05-11T06:58:14.356Z,101042.47
2023-05-11T07:00:42.457Z,101041.19
2023-05-11T07:03:10.403Z,101050.69
2023-05-11T07:05:39.514Z,101050.19
2023-05-11T07:08:07.351Z,101047.91
2023-05-11T07:10:35.949Z,101048.72
2023-05-11T07:13:03.743Z,101046.22
2023-05-11T07:15:31.719Z,101038.81
2023-05-11T07:18:01.479Z,101047.16
2023-05-11T07:20:29.624Z,101044.81
2023-05-11T07:22:59.318Z,101042.47
2023-05-11T07:25:27.413Z,101054.91
2023-05-11T07:27:55.124Z,101049.94
2023-05-11T07:30:24.648Z,101040.91
2023-05-11T07:32:52.785Z,101051.22
2023-05-11T07:35:22.114Z,101038.69
2023-05-11T07:37:51.066Z,101037.88
2023-05-11T07:40:19.368Z,101047.19
2023-05-11T07:42:47.376Z,101046.91
2023-05-11T07:45:15.529Z,101039.59
2023-05-11T07:47:43.425Z,101054.72
2023-05-11T07:50:11.604Z,101050.38
2023-05-11T07:52:39.613Z,101043.34
2023-05-11T07:55:08.006Z,101044.47
2023-05-11T07:57:35.762Z,101035.38
2023-05-11T08:00:05.939Z,101040.03
2023-05-11T08:02:39.489Z,101037.00
2023-05-11T08:05:08.488Z,101039.97
2023-05-11T08:07:37.456Z,101050.00
2023-05-11T08:10:07.561Z,101040.34
2023-05-11T08:12:36.931Z,101029.41
2023-05-11T08:15:05.955Z,101030.72
2023-05-11T08:17:34.497Z,101037.75
2023-05-11T08:20:02.877Z,101035.59
2023-05-11T08:22:31.100Z,101024.13
2023-05-11T08:24:58.863Z,101041.38
2023-05-11T08:27:26.765Z,101026.16
2023-05-11T08:29:56.088Z,101022.13
2023-05-11T08:32:24.260Z,101032.50
2023-05-11T08:34:52.703Z,101027.50
2023-05-11T08:37:20.760Z,101033.22
2023-05-11T08:39:48.481Z,101018.59
2023-05-11T08:42:17.481Z,101020.72
2023-05-11T08:44:47.601Z,101057.53
2023-05-11T08:47:23.329Z,101031.75
2023-05-11T08:49:53.102Z,101011.97
2023-05-11T08:52:21.242Z,101019.13
2023-05-11T08:54:49.182Z,101028.41
2023-05-11T08:57:17.612Z,101023.72
2023-05-11T08:59:47.129Z,101022.81
2023-05-11T09:02:17.932Z,101014.91
2023-05-11T09:04:48.579Z,101008.94
2023-05-11T09:07:18.683Z,101022.03
2023-05-11T09:09:47.871Z,101006.63
2023-05-11T09:12:17.218Z,101010.84
2023-05-11T09:14:46.753Z,101027.66
2023-05-11T09:17:14.947Z,101022.78
2023-05-11T09:20:00.552Z,101016.88
2023-05-11T09:22:31.409Z,101015.50
2023-05-11T09:25:04.101Z,101018.28
2023-05-11T09:27:32.511Z,101005.13
2023-05-11T09:30:14.084Z,101007.03
2023-05-11T09:32:56.894Z,101011.13
2023-05-11T09:35:34.516Z,101002.75
2023-05-11T09:38:09.329Z,100986.25
2023-05-11T09:41:00.983Z,101003.78
2023-05-11T09:43:30.803Z,100997.41
2023-05-11T09:46:07.448Z,100998.69
2023-05-11T09:48:35.921Z,100987.56
2023-05-11T09:51:08.332Z,100998.78
2023-05-11T09:53:45.912Z,100993.81
2023-05-11T09:56:15.627Z,101001.75
2023-05-11T09:58:51.950Z,100996.72
2023-05-11T10:01:34.170Z,101001.16
2023-05-11T10:04:21.361Z,100982.13
2023-05-11T10:06:54.239Z,100976.13
2023-05-11T10:09:26.648Z,100980.69
2023-05-11T10:11:55.444Z,100981.91
2023-05-11T10:14:24.828Z,100971.91
2023-05-11T10:16:53.872Z,100982.53
2023-05-11T10:19:22.518Z,100982.94
2023-05-11T10:21:52.138Z,100968.78
2023-05-11T10:24:20.595Z,100984.03
2023-05-11T10:26:49.902Z,100973.22
2023-05-11T10:29:20.303Z,100971.53
2023-05-11T10:31:51.257Z,100963.19
2023-05-11T10:34:23.287Z,100961.53
2023-05-11T10:36:53.137Z,100960.50
2023-05-11T10:39:21.991Z,100953.31
2023-05-11T10:41:55.859Z,100957.31
2023-05-11T10:45:11.018Z,100947.19
2023-05-11T10:48:16.048Z,100959.81
2023-05-11T10:51:20.988Z,100949.84
2023-05-11T10:54:14.560Z,100955.38
2023-05-11T10:57:12.372Z,100956.66
2023-05-11T10:59:48.865Z,100955.41
2023-05-11T11:02:18.751Z,100957.47
2023-05-11T11:04:51.834Z,100935.94
2023-05-11T11:07:21.068Z,100946.09
2023-05-11T11:09:52.480Z,100937.22
2023-05-11T11:12:21.654Z,100935.94
2023-05-11T11:15:08.988Z,100936.75
2023-05-11T11:17:37.232Z,100934.50
2023-05-11T11:20:08.764Z,100927.31
2023-05-11T11:22:41.428Z,100933.03
2023-05-11T11:25:13.557Z,100939.28
2023-05-11T11:27:41.828Z,100940.50
2023-05-11T11:30:23.770Z,100930.38
2023-05-11T11:33:08.108Z,100938.25
2023-05-11T11:35:42.293Z,100930.69
2023-05-11T11:38:12.964Z,100930.03
2023-05-11T11:40:51.251Z,100935.13
2023-05-11T11:43:22.692Z,100925.66
2023-05-11T11:45:58.389Z,100934.78
2023-05-11T11:48:40.724Z,100922.63
2023-05-11T11:51:10.595Z,100937.22
2023-05-11T11:53:40.887Z,100950.25
2023-05-11T11:56:15.697Z,100920.97
2023-05-11T11:58:44.443Z,100932.63
2023-05-11T12:01:20.767Z,100930.78
2023-05-11T12:04:18.088Z,100928.13
2023-05-11T12:06:54.860Z,100926.59
2023-05-11T12:09:23.576Z,100925.47
2023-05-11T12:11:52.474Z,100934.50
2023-05-11T12:14:21.515Z,100931.09
2023-05-11T12:17:13.304Z,100925.47
2023-05-11T12:19:43.467Z,100915.53
2023-05-11T12:22:14.288Z,100934.56
2023-05-11T12:24:42.962Z,100924.16
2023-05-11T12:27:11.316Z,100913.84
2023-05-11T12:29:40.812Z,100908.06
2023-05-11T12:32:13.893Z,100922.59
2023-05-11T12:34:42.083Z,100923.78
2023-05-11T12:37:09.811Z,100917.69
2023-05-11T12:39:39.680Z,100912.38
2023-05-11T12:42:07.513Z,100908.03
2023-05-11T12:44:35.656Z,100897.25
2023-05-11T12:47:03.882Z,100885.53
2023-05-11T12:49:32.223Z,100888.81
2023-05-11T12:52:00.096Z,100882.75
2023-05-11T12:54:31.278Z,100888.16
2023-05-11T12:57:00.141Z,100880.56
2023-05-11T12:59:39.512Z,100890.44
2023-05-11T13:02:16.523Z,100904.91
2023-05-11T13:04:47.037Z,100891.75
2023-05-11T13:07:24.085Z,100874.63
2023-05-11T13:10:01.848Z,100879.53
2023-05-11T13:12:32.150Z,100882.88
2023-05-11T13:15:12.866Z,100884.56
2023-05-11T13:17:42.368Z,100877.25
2023-05-11T13:20:33.401Z,100871.47
2023-05-11T13:23:09.779Z,100871.56
2023-05-11T13:25:49.727Z,100866.84
2023-05-11T13:28:18.992Z,100872.63
2023-05-11T13:30:47.570Z,100862.38
2023-05-11T13:33:15.444Z,100874.13
2023-05-11T13:35:44.695Z,100868.44
2023-05-11T13:38:13.181Z,100882.94
2023-05-11T13:40:41.313Z,100862.66
2023-05-11T13:43:09.329Z,100869.38
2023-05-11T13:45:40.150Z,100878.69
2023-05-11T13:48:08.482Z,100861.06
2023-05-11T13:50:36.606Z,100872.22
2023-05-11T13:53:04.319Z,100850.81
2023-05-11T13:55:32.401Z,100864.28
2023-05-11T13:58:00.156Z,100867.13
2023-05-11T14:00:28.283Z,100858.78
2023-05-11T14:02:58.160Z,100855.94
2023-05-11T14:05:26.636Z,100851.47
2023-05-11T14:07:54.365Z,100850.25
2023-05-11T14:10:22.667Z,100859.25
2023-05-11T14:12:50.553Z,100867.59
2023-05-11T14:15:18.771Z,100868.34
2023-05-11T14:17:46.816Z,100847.22
2023-05-11T14:20:15.451Z,100852.31
2023-05-11T14:22:43.504Z,100847.41
2023-05-11T14:25:11.475Z,100849.41
2023-05-11T14:27:39.646Z,100855.19
2023-05-11T14:30:08.558Z,100845.31
2023-05-11T14:32:36.629Z,100843.03
2023-05-11T14:35:04.636Z,100841.53
2023-05-11T14:37:32.737Z,100836.03
2023-05-11T14:40:00.955Z,100849.13
2023-05-11T14:42:29.709Z,100840.69
2023-05-11T14:44:57.436Z,100841.16
2023-05-11T14:47:25.857Z,100832.72
2023-05-11T14:49:53.692Z,100836.31
2023-05-11T14:52:21.733Z,100842.94
2023-05-11T14:54:49.576Z,100849.09
2023-05-11T14:57:17.787Z,100840.19
2023-05-11T14:59:58.404Z,100833.19
2023-05-11T15:02:28.844Z,100834.88
2023-05-11T15:04:56.987Z,100834.31
2023-05-11T15:07:25.116Z,100836.59
2023-05-11T15:09:53.011Z,100835.75
2023-05-11T15:12:21.031Z,100844.25
2023-05-11T15:14:49.010Z,100837.75
2023-05-11T15:17:17.000Z,100848.19
2023-05-11T15:19:44.900Z,100853.84
2023-05-11T15:22:12.913Z,100832.81
2023-05-11T15:24:41.252Z,100839.38
2023-05-11T15:27:09.232Z,100843.63
2023-05-11T15:29:36.963Z,100847.22
2023-05-11T15:32:05.447Z,100841.63
2023-05-11T15:34:33.925Z,100833.28
2023-05-11T15:37:02.005Z,100831.00
2023-05-11T15:39:29.756Z,100834.72
2023-05-11T15:41:57.735Z,100836.81
2023-05-11T15:44:25.458Z,100842.47
2023-05-11T15:46:53.837Z,100836.22
2023-05-11T15:49:22.352Z,100835.25
2023-05-11T15:51:50.402Z,100847.75
2023-05-11T15:54:18.117Z,100846.41
2023-05-11T15:56:46.501Z,100861.28
2023-05-11T15:59:14.158Z,100840.44
2023-05-11T16:01:42.420Z,100858.53
2023-05-11T16:04:10.148Z,100845.47
2023-05-11T16:06:38.205Z,100848.47
2023-05-11T16:09:05.976Z,100849.13
2023-05-11T16:11:33.957Z,100846.56
2023-05-11T16:14:01.598Z,100845.63
2023-05-11T16:16:29.927Z,100843.91
2023-05-11T16:18:59.387Z,100849.22
2023-05-11T16:21:27.652Z,100843.06
2023-05-11T16:23:55.348Z,100834.19
2023-05-11T16:26:23.283Z,100841.75
2023-05-11T16:28:50.949Z,100849.41
2023-05-11T16:31:18.939Z,100841.91
2023-05-11T16:33:46.665Z,100850.22
2023-05-11T16:36:14.814Z,100840.72
2023-05-11T16:38:42.551Z,100847.94
2023-05-11T16:41:11.588Z,100845.91
2023-05-11T16:43:41.884Z,100845.81
2023-05-11T16:46:10.144Z,100845.06
2023-05-11T16:48:38.122Z,100847.78
2023-05-11T16:51:06.192Z,100842.31
2023-05-11T16:53:33.918Z,100844.28
2023-05-11T16:56:02.008Z,100840.09
2023-05-11T16:58:31.018Z,100844.88
2023-05-11T17:00:59.508Z,100842.69
2023-05-11T17:03:27.297Z,100842.16
2023-05-11T17:05:56.026Z,100845.44
2023-05-11T17:08:23.968Z,100847.84
2023-05-11T17:10:51.937Z,100847.94
2023-05-11T17:13:19.758Z,100850.81
2023-05-11T17:15:47.819Z,100854.75
2023-05-11T17:18:15.656Z,100849.94
2023-05-11T17:20:43.633Z,100847.78
2023-05-11T17:23:11.334Z,100856.78
2023-05-11T17:25:39.300Z,100852.47
2023-05-11T17:28:07.042Z,100854.97
2023-05-11T17:30:47.338Z,100852.97
2023-05-11T17:33:17.254Z,100857.00
2023-05-11T17:35:45.639Z,100854.44
2023-05-11T17:38:13.330Z,100866.31
2023-05-11T17:40:41.398Z,100857.53
2023-05-11T17:43:09.128Z,100859.94
2023-05-11T17:45:37.096Z,100863.88
2023-05-11T17:48:05.178Z,100863.75
2023-05-11T17:50:36.241Z,100865.47
2023-05-11T17:53:04.068Z,100866.84
2023-05-11T17:55:32.074Z,100865.66
2023-05-11T17:57:59.827Z,100869.84
2023-05-11T18:00:27.915Z,100876.56
2023-05-11T18:02:55.954Z,100875.97
2023-05-11T18:05:33.263Z,100878.03
2023-05-11T18:08:09.262Z,100872.50
2023-05-11T18:10:37.433Z,100888.53
2023-05-11T18:13:05.958Z,100882.25
2023-05-11T18:15:34.289Z,100892.66
2023-05-11T18:18:02.318Z,100889.63
2023-05-11T18:20:30.821Z,100894.84
2023-05-11T18:22:58.665Z,100894.25
2023-05-11T18:25:28.033Z,100905.03
2023-05-11T18:27:55.693Z,100901.94
2023-05-11T18:30:23.660Z,100908.44
2023-05-11T18:32:51.900Z,100912.59
2023-05-11T18:35:19.969Z,100907.38
2023-05-11T18:37:48.013Z,100912.34
2023-05-11T18:40:16.156Z,100917.34
2023-05-11T18:42:44.238Z,100912.06
2023-05-11T18:45:12.326Z,100916.66
2023-05-11T18:47:42.947Z,100922.41
2023-05-11T18:50:11.478Z,100921.66
2023-05-11T18:52:39.279Z,100918.47
2023-05-11T18:55:07.973Z,100919.81
2023-05-11T18:57:35.963Z,100922.44
2023-05-11T19:00:04.095Z,100930.84
2023-05-11T19:02:33.195Z,100923.63
2023-05-11T19:05:01.376Z,100926.31
2023-05-11T19:07:29.241Z,100931.94
2023-05-11T19:09:57.892Z,100933.53
2023-05-11T19:12:25.667Z,100934.00
2023-05-11T19:14:56.228Z,100931.00
2023-05-11T19:17:24.501Z,100941.59
2023-05-11T19:19:52.975Z,100945.22
2023-05-11T19:22:21.451Z,100947.69
2023-05-11T19:24:49.922Z,100945.88
2023-05-11T19:27:17.611Z,100941.59
2023-05-11T19:29:45.811Z,100945.94
2023-05-11T19:32:14.182Z,100948.59
2023-05-11T19:34:42.154Z,100952.09
2023-05-11T19:37:09.767Z,100947.97
2023-05-11T19:39:37.758Z,100957.13
2023-05-11T19:42:05.449Z,100951.06
2023-05-11T19:44:34.654Z,100955.91
2023-05-11T19:47:02.286Z,100957.91
2023-05-11T19:49:30.614Z,100955.38
2023-05-11T19:51:58.209Z,100962.97
2023-05-11T19:54:26.202Z,100960.59
2023-05-11T19:56:54.224Z,100958.16
2023-05-11T19:59:22.515Z,100968.06
2023-05-11T20:01:50.169Z,100972.41
2023-05-11T20:04:18.272Z,100973.22
2023-05-11T20:06:45.908Z,100967.97
2023-05-11T20:09:13.903Z,100969.94
2023-05-11T20:11:41.573Z,100975.84
2023-05-11T20:14:09.499Z,100968.22
2023-05-11T20:16:37.433Z,100971.63
2023-05-11T20:19:06.059Z,100981.19
2023-05-11T20:21:35.844Z,100976.69
2023-05-11T20:24:04.313Z,100981.19
2023-05-11T20:26:32.155Z,100976.78
2023-05-11T20:29:00.078Z,100979.56
2023-05-11T20:31:27.988Z,100981.81
2023-05-11T20:36:26.651Z,100987.59
2023-05-11T20:38:54.611Z,100989.41
2023-05-11T20:41:22.849Z,100985.41
2023-05-11T20:43:52.220Z,100988.19
2023-05-11T20:46:20.656Z,100989.84
2023-05-11T20:48:51.794Z,100988.63
2023-05-11T20:51:23.245Z,100984.75
2023-05-11T20:53:51.619Z,100986.09
2023-05-11T20:56:19.321Z,100985.31
2023-05-11T20:58:47.526Z,100987.94
2023-05-11T21:01:15.295Z,100989.78
2023-05-11T21:03:43.371Z,100987.78
2023-05-11T21:06:11.032Z,100987.66
2023-05-11T21:08:38.994Z,100989.53
2023-05-11T21:11:06.693Z,100996.47
2023-05-11T21:13:34.633Z,100994.09
2023-05-11T21:16:03.084Z,100996.84
2023-05-11T21:18:34.928Z,101001.13
2023-05-11T21:21:04.494Z,101003.00
2023-05-11T21:23:32.540Z,101006.69
2023-05-11T21:26:00.320Z,101000.03
2023-05-11T21:28:29.421Z,101004.69
2023-05-11T21:31:00.382Z,101012.25
2023-05-11T21:33:28.532Z,101014.00
2023-05-11T21:35:56.554Z,101016.91
2023-05-11T21:38:24.705Z,101015.25
2023-05-11T21:40:54.727Z,101013.66
2023-05-11T21:43:23.152Z,101015.25
2023-05-11T21:45:51.373Z,101025.84
2023-05-11T21:48:19.546Z,101024.09
2023-05-11T21:50:53.620Z,101024.56
2023-05-11T21:53:22.212Z,101027.00
2023-05-11T21:55:50.406Z,101022.06
2023-05-11T21:58:18.467Z,101034.47
2023-05-11T22:00:46.585Z,101031.69
2023-05-11T22:03:14.897Z,101030.88
2023-05-11T22:05:42.623Z,101031.97
2023-05-11T22:08:15.318Z,101031.00
2023-05-11T22:10:44.021Z,101039.91
2023-05-11T22:13:12.071Z,101035.72
2023-05-11T22:15:39.853Z,101040.63
2023-05-11T22:18:07.846Z,101037.44
2023-05-11T22:20:35.641Z,101035.78
2023-05-11T22:23:03.697Z,101043.34
2023-05-11T22:25:32.195Z,101042.47
2023-05-11T22:28:00.802Z,101046.63
2023-05-11T22:30:28.449Z,101047.34
2023-05-11T22:32:56.452Z,101050.88
2023-05-11T22:35:24.211Z,101052.94
2023-05-11T22:37:52.201Z,101058.91
2023-05-11T22:40:20.195Z,101055.78
2023-05-11T22:42:48.360Z,101059.22
2023-05-11T22:45:16.543Z,101055.13
2023-05-11T22:47:44.598Z,101053.41
2023-05-11T22:50:12.390Z,101061.59
2023-05-11T22:52:40.440Z,101053.16
2023-05-11T22:55:08.670Z,101059.25
2023-05-11T22:57:37.170Z,101061.88
2023-05-11T23:00:05.500Z,101056.44
2023-05-11T23:02:35.721Z,101055.84
2023-05-11T23:05:03.875Z,101053.47
2023-05-11T23:07:31.971Z,101056.81
2023-05-11T23:09:59.664Z,101053.66
2023-05-11T23:12:27.866Z,101055.63
2023-05-11T23:14:55.554Z,101050.88
2023-05-11T23:17:23.597Z,101058.66
2023-05-11T23:19:51.326Z,101054.53
2023-05-11T23:22:19.344Z,101052.50
2023-05-11T23:24:47.065Z,101051.88
2023-05-11T23:27:14.994Z,101053.63
2023-05-11T23:29:42.805Z,101050.34
2023-05-11T23:32:10.793Z,101054.09
2023-05-11T23:34:38.381Z,101054.09
2023-05-11T23:37:06.501Z,101046.00
2023-05-11T23:39:34.131Z,101048.72
2023-05-11T23:42:02.174Z,101040.91
2023-05-11T23:44:29.861Z,101044.13
2023-05-11T23:46:57.970Z,101051.66
2023-05-11T23:49:26.110Z,101045.81
2023-05-11T23:51:54.287Z,101046.38
2023-05-11T23:54:22.020Z,101050.81
2023-05-11T23:56:49.960Z,101052.91
2023-05-11T23:59:17.598Z,101043.28
